createdAt,value
2022-08-18T00:00:40.741Z,7.40
2022-08-18T00:01:40.800Z,8.00
2022-08-18T00:02:41.755Z,10.10
2022-08-18T00:03:57.122Z,8.30
2022-08-18T00:04:48.850Z,9.00
2022-08-18T00:05:41.766Z,8.60
2022-08-18T00:06:40.701Z,8.40
2022-08-18T00:07:40.703Z,8.10
2022-08-18T00:08:41.698Z,9.20
2022-08-18T00:09:40.684Z,8.50
2022-08-18T00:10:40.695Z,9.00
2022-08-18T00:11:42.068Z,9.20
2022-08-18T00:12:40.671Z,8.50
2022-08-18T00:13:40.656Z,8.70
2022-08-18T00:14:40.668Z,8.30
2022-08-18T00:15:41.490Z,7.90
2022-08-18T00:16:40.631Z,11.20
2022-08-18T00:17:40.626Z,9.10
2022-08-18T00:18:40.627Z,8.10
2022-08-18T00:19:45.779Z,8.90
2022-08-18T00:20:41.638Z,8.70
2022-08-18T00:21:40.605Z,7.80
2022-08-18T00:22:40.591Z,9.30
2022-08-18T00:23:40.589Z,10.10
2022-08-18T00:24:40.582Z,8.50
2022-08-18T00:25:41.575Z,8.40
2022-08-18T00:26:40.579Z,7.90
2022-08-18T00:27:40.550Z,7.80
2022-08-18T00:28:40.548Z,8.50
2022-08-18T00:29:40.543Z,10.20
2022-08-18T00:30:40.530Z,7.10
2022-08-18T00:31:40.524Z,8.10
2022-08-18T00:32:40.542Z,8.10
2022-08-18T00:33:40.506Z,9.00
2022-08-18T00:34:40.503Z,6.90
2022-08-18T00:35:40.496Z,8.90
2022-08-18T00:36:40.476Z,8.40
2022-08-18T00:37:40.484Z,8.00
2022-08-18T00:38:40.498Z,10.30
2022-08-18T00:39:46.446Z,8.80
2022-08-18T00:40:40.461Z,7.60
2022-08-18T00:41:40.451Z,9.10
2022-08-18T00:42:40.438Z,11.80
2022-08-18T00:43:40.465Z,9.70
2022-08-18T00:44:40.421Z,12.60
2022-08-18T00:45:40.414Z,9.70
2022-08-18T00:46:40.430Z,9.10
2022-08-18T00:47:42.283Z,9.40
2022-08-18T00:48:40.391Z,8.80
2022-08-18T00:49:40.395Z,8.00
2022-08-18T00:50:40.389Z,10.00
2022-08-18T00:51:40.374Z,10.80
2022-08-18T00:52:40.397Z,9.60
2022-08-18T00:53:40.362Z,11.50
2022-08-18T00:54:40.352Z,6.90
2022-08-18T00:55:40.355Z,9.30
2022-08-18T00:56:40.342Z,8.70
2022-08-18T00:57:40.336Z,8.80
2022-08-18T00:58:40.342Z,7.00
2022-08-18T00:59:40.337Z,9.80
2022-08-18T01:00:40.376Z,7.60
2022-08-18T01:01:40.307Z,10.50
2022-08-18T01:02:40.302Z,10.10
2022-08-18T01:03:40.319Z,8.30
2022-08-18T01:04:42.234Z,10.20
2022-08-18T01:05:40.276Z,8.20
2022-08-18T01:06:40.262Z,10.20
2022-08-18T01:07:40.259Z,10.10
2022-08-18T01:08:40.253Z,7.90
2022-08-18T01:09:40.251Z,10.00
2022-08-18T01:10:40.228Z,7.70
2022-08-18T01:11:40.245Z,9.20
2022-08-18T01:12:44.955Z,10.20
2022-08-18T01:13:41.220Z,10.00
2022-08-18T01:14:40.197Z,11.40
2022-08-18T01:15:40.223Z,10.10
2022-08-18T01:16:40.192Z,9.60
2022-08-18T01:17:41.184Z,9.20
2022-08-18T01:18:40.173Z,11.10
2022-08-18T01:19:40.165Z,10.90
2022-08-18T01:20:40.167Z,9.10
2022-08-18T01:21:40.167Z,9.80
2022-08-18T01:22:40.141Z,8.00
2022-08-18T01:23:40.141Z,8.50
2022-08-18T01:24:40.141Z,7.80
2022-08-18T01:25:40.128Z,9.10
2022-08-18T01:26:44.268Z,10.10
2022-08-18T01:27:41.123Z,9.10
2022-08-18T01:28:40.117Z,9.10
2022-08-18T01:29:43.365Z,9.40
2022-08-18T01:30:40.105Z,8.20
2022-08-18T01:31:40.077Z,8.40
2022-08-18T01:32:41.070Z,9.30
2022-08-18T01:33:40.068Z,7.20
2022-08-18T01:34:40.050Z,10.10
2022-08-18T01:35:41.850Z,9.60
2022-08-18T01:36:40.064Z,8.10
2022-08-18T01:37:40.033Z,8.10
2022-08-18T01:38:40.024Z,9.00
2022-08-18T01:41:20.988Z,8.90
2022-08-18T01:41:23.807Z,9.40
2022-08-18T01:41:41.046Z,9.00
2022-08-18T01:42:39.992Z,9.70
2022-08-18T01:43:40.008Z,8.00
2022-08-18T01:44:39.983Z,8.40
2022-08-18T01:45:39.998Z,9.00
2022-08-18T01:46:39.969Z,8.50
2022-08-18T01:47:47.909Z,8.30
2022-08-18T01:48:40.967Z,7.30
2022-08-18T01:49:39.980Z,8.40
2022-08-18T01:50:39.945Z,8.60
2022-08-18T01:51:41.083Z,10.20
2022-08-18T01:52:39.922Z,7.60
2022-08-18T01:53:39.936Z,7.90
2022-08-18T01:54:39.908Z,8.90
2022-08-18T01:55:39.902Z,8.50
2022-08-18T01:56:39.921Z,9.60
2022-08-18T01:57:39.886Z,9.40
2022-08-18T01:58:39.880Z,10.30
2022-08-18T01:59:39.876Z,8.70
2022-08-18T02:00:39.876Z,10.60
2022-08-18T02:01:45.323Z,10.30
2022-08-18T02:02:40.875Z,11.30
2022-08-18T02:03:39.847Z,10.70
2022-08-18T02:04:39.842Z,9.70
2022-08-18T02:05:39.864Z,8.30
2022-08-18T02:06:39.822Z,9.90
2022-08-18T02:07:40.178Z,8.40
2022-08-18T02:08:42.145Z,8.70
2022-08-18T02:09:39.800Z,11.70
2022-08-18T02:10:39.797Z,9.70
2022-08-18T02:11:39.816Z,10.10
2022-08-18T02:12:39.776Z,7.80
2022-08-18T02:13:39.771Z,9.00
2022-08-18T02:14:39.773Z,8.40
2022-08-18T02:15:41.481Z,7.50
2022-08-18T02:16:39.764Z,10.80
2022-08-18T02:17:39.768Z,10.20
2022-08-18T02:18:48.279Z,9.10
2022-08-18T02:19:40.750Z,7.80
2022-08-18T02:20:40.653Z,9.90
2022-08-18T02:21:39.733Z,8.60
2022-08-18T02:22:39.718Z,11.80
2022-08-18T02:23:39.727Z,9.30
2022-08-18T02:24:39.694Z,7.80
2022-08-18T02:25:39.710Z,10.50
2022-08-18T02:26:39.674Z,8.70
2022-08-18T02:27:39.694Z,9.70
2022-08-18T02:28:39.671Z,8.70
2022-08-18T02:29:39.694Z,8.50
2022-08-18T02:30:39.667Z,9.80
2022-08-18T02:31:39.655Z,9.30
2022-08-18T02:32:39.669Z,9.60
2022-08-18T02:33:39.638Z,9.80
2022-08-18T02:34:40.624Z,11.00
2022-08-18T02:35:39.642Z,11.50
2022-08-18T02:36:39.615Z,12.60
2022-08-18T02:37:39.618Z,11.20
2022-08-18T02:38:39.594Z,8.40
2022-08-18T02:39:39.643Z,9.30
2022-08-18T02:40:39.582Z,10.90
2022-08-18T02:41:39.575Z,9.80
2022-08-18T02:42:39.592Z,10.00
2022-08-18T02:43:39.560Z,11.10
2022-08-18T02:44:39.548Z,10.00
2022-08-18T02:45:39.553Z,10.10
2022-08-18T02:46:39.531Z,9.60
2022-08-18T02:47:39.540Z,9.00
2022-08-18T02:48:39.541Z,9.70
2022-08-18T02:49:39.536Z,10.10
2022-08-18T02:50:39.552Z,9.60
2022-08-18T02:51:39.507Z,8.40
2022-08-18T02:52:40.502Z,9.10
2022-08-18T02:53:39.478Z,9.70
2022-08-18T02:54:39.485Z,10.80
2022-08-18T02:55:39.469Z,8.90
2022-08-18T02:56:41.110Z,10.30
2022-08-18T02:57:39.470Z,10.30
2022-08-18T02:58:39.441Z,11.10
2022-08-18T02:59:39.449Z,11.10
2022-08-18T03:00:39.439Z,11.60
2022-08-18T03:01:39.531Z,12.10
2022-08-18T03:02:39.414Z,8.40
2022-08-18T03:03:39.430Z,9.50
2022-08-18T03:04:39.394Z,10.00
2022-08-18T03:05:39.391Z,9.60
2022-08-18T03:06:39.452Z,12.40
2022-08-18T03:07:39.394Z,9.60
2022-08-18T03:08:39.361Z,9.60
2022-08-18T03:09:39.364Z,10.10
2022-08-18T03:10:39.350Z,9.40
2022-08-18T03:11:39.366Z,11.30
2022-08-18T03:12:39.335Z,11.50
2022-08-18T03:13:39.329Z,11.30
2022-08-18T03:14:39.342Z,8.90
2022-08-18T03:15:39.315Z,8.50
2022-08-18T03:16:39.309Z,9.20
2022-08-18T03:17:40.298Z,9.70
2022-08-18T03:18:39.290Z,9.20
2022-08-18T03:19:39.301Z,9.80
2022-08-18T03:20:39.264Z,8.10
2022-08-18T03:21:39.270Z,9.20
2022-08-18T03:22:39.261Z,10.50
2022-08-18T03:23:39.251Z,9.70
2022-08-18T03:24:39.261Z,9.80
2022-08-18T03:25:39.237Z,8.80
2022-08-18T03:26:39.229Z,9.50
2022-08-18T03:27:39.228Z,9.40
2022-08-18T03:28:39.232Z,9.40
2022-08-18T03:29:39.200Z,9.00
2022-08-18T03:30:39.210Z,10.40
2022-08-18T03:31:39.186Z,10.90
2022-08-18T03:32:39.181Z,9.60
2022-08-18T03:33:39.172Z,10.00
2022-08-18T03:34:39.160Z,9.60
2022-08-18T03:35:39.169Z,8.70
2022-08-18T03:36:39.147Z,9.20
2022-08-18T03:37:39.130Z,9.70
2022-08-18T03:38:39.123Z,9.60
2022-08-18T03:39:39.175Z,12.20
2022-08-18T03:40:39.108Z,13.50
2022-08-18T03:41:57.257Z,8.90
2022-08-18T03:42:40.115Z,10.10
2022-08-18T03:43:50.975Z,10.10
2022-08-18T03:44:40.077Z,9.70
2022-08-18T03:45:39.095Z,10.30
2022-08-18T03:46:39.070Z,10.50
2022-08-18T03:47:39.051Z,10.80
2022-08-18T03:48:39.052Z,10.50
2022-08-18T03:49:39.043Z,9.40
2022-08-18T03:50:39.032Z,11.00
2022-08-18T03:51:39.054Z,9.40
2022-08-18T03:52:41.559Z,10.40
2022-08-18T03:53:39.021Z,10.30
2022-08-18T03:54:39.055Z,9.70
2022-08-18T03:55:39.021Z,10.50
2022-08-18T03:56:38.991Z,10.40
2022-08-18T03:57:39.441Z,10.80
2022-08-18T03:58:38.981Z,10.60
2022-08-18T03:59:38.968Z,10.00
2022-08-18T04:00:38.961Z,10.20
2022-08-18T04:01:39.051Z,10.80
2022-08-18T04:02:38.942Z,10.30
2022-08-18T04:03:38.941Z,9.30
2022-08-18T04:04:42.846Z,12.30
2022-08-18T04:05:38.924Z,12.50
2022-08-18T04:06:38.917Z,9.80
2022-08-18T04:07:38.958Z,10.20
2022-08-18T04:08:38.898Z,9.30
2022-08-18T04:09:38.913Z,10.40
2022-08-18T04:10:38.882Z,10.00
2022-08-18T04:11:38.880Z,10.20
2022-08-18T04:12:38.871Z,9.80
2022-08-18T04:13:38.896Z,10.10
2022-08-18T04:14:38.854Z,10.50
2022-08-18T04:15:38.842Z,12.10
2022-08-18T04:16:38.830Z,11.80
2022-08-18T04:18:03.487Z,10.10
2022-08-18T04:18:39.819Z,10.50
2022-08-18T04:19:38.832Z,9.80
2022-08-18T04:20:38.801Z,10.90
2022-08-18T04:21:39.801Z,11.00
2022-08-18T04:22:38.788Z,9.60
2022-08-18T04:23:43.462Z,13.00
2022-08-18T04:24:39.812Z,9.90
2022-08-18T04:25:38.763Z,11.30
2022-08-18T04:26:38.777Z,11.00
2022-08-18T04:27:38.752Z,10.20
2022-08-18T04:28:38.747Z,8.50
2022-08-18T04:29:38.740Z,9.80
2022-08-18T04:30:38.747Z,9.50
2022-08-18T04:31:38.723Z,9.70
2022-08-18T04:32:38.715Z,12.20
2022-08-18T04:33:38.708Z,10.00
2022-08-18T04:34:38.718Z,10.10
2022-08-18T04:35:38.703Z,11.40
2022-08-18T04:36:38.686Z,10.30
2022-08-18T04:37:39.579Z,11.40
2022-08-18T04:38:38.670Z,11.10
2022-08-18T04:39:38.756Z,10.60
2022-08-18T04:40:38.651Z,11.50
2022-08-18T04:41:38.655Z,9.80
2022-08-18T04:42:43.170Z,9.80
2022-08-18T04:43:38.638Z,12.80
2022-08-18T04:44:38.628Z,11.10
2022-08-18T04:45:38.619Z,10.90
2022-08-18T04:46:38.603Z,10.10
2022-08-18T04:47:38.603Z,11.00
2022-08-18T04:48:38.605Z,10.50
2022-08-18T04:49:38.590Z,11.10
2022-08-18T04:50:38.586Z,11.10
2022-08-18T04:52:30.982Z,11.00
2022-08-18T04:52:41.813Z,12.40
2022-08-18T04:53:38.563Z,10.60
2022-08-18T04:54:38.547Z,10.20
2022-08-18T04:55:38.539Z,11.00
2022-08-18T04:56:38.535Z,8.90
2022-08-18T04:57:38.561Z,10.40
2022-08-18T04:58:38.517Z,10.60
2022-08-18T04:59:38.534Z,10.50
2022-08-18T05:00:38.499Z,12.00
2022-08-18T05:01:38.544Z,11.10
2022-08-18T05:02:38.485Z,13.80
2022-08-18T05:03:38.497Z,13.20
2022-08-18T05:04:39.480Z,13.80
2022-08-18T05:05:38.473Z,12.40
2022-08-18T05:06:38.455Z,10.90
2022-08-18T05:07:38.452Z,11.40
2022-08-18T05:08:38.470Z,11.60
2022-08-18T05:09:41.271Z,11.90
2022-08-18T05:10:38.458Z,9.90
2022-08-18T05:11:38.423Z,11.60
2022-08-18T05:12:38.407Z,11.30
2022-08-18T05:13:38.961Z,11.00
2022-08-18T05:14:38.393Z,10.80
2022-08-18T05:15:59.489Z,12.30
2022-08-18T05:16:48.116Z,11.00
2022-08-18T05:17:39.392Z,12.80
2022-08-18T05:18:38.390Z,12.80
2022-08-18T05:19:38.589Z,11.30
2022-08-18T05:20:38.352Z,11.00
2022-08-18T05:21:38.354Z,11.40
2022-08-18T05:22:38.362Z,9.90
2022-08-18T05:23:38.345Z,11.10
2022-08-18T05:24:38.318Z,11.20
2022-08-18T05:25:38.339Z,9.70
2022-08-18T05:26:38.303Z,10.00
2022-08-18T05:27:38.297Z,12.30
2022-08-18T05:28:38.314Z,12.20
2022-08-18T05:29:41.735Z,14.10
2022-08-18T05:30:38.276Z,11.40
2022-08-18T05:31:38.278Z,12.10
2022-08-18T05:32:48.344Z,11.50
2022-08-18T05:33:39.262Z,9.40
2022-08-18T05:34:38.250Z,10.30
2022-08-18T05:35:38.246Z,10.60
2022-08-18T05:36:38.235Z,11.40
2022-08-18T05:37:38.221Z,11.90
2022-08-18T05:38:38.233Z,11.90
2022-08-18T05:39:38.250Z,10.70
2022-08-18T05:40:38.207Z,10.60
2022-08-18T05:41:38.207Z,11.40
2022-08-18T05:42:38.195Z,10.70
2022-08-18T05:43:40.602Z,13.20
2022-08-18T05:44:38.165Z,11.80
2022-08-18T05:45:38.156Z,11.30
2022-08-18T05:46:38.151Z,10.50
2022-08-18T05:47:38.140Z,10.70
2022-08-18T05:48:43.648Z,11.60
2022-08-18T05:49:39.157Z,11.60
2022-08-18T05:50:38.118Z,11.70
2022-08-18T05:51:38.143Z,9.40
2022-08-18T05:52:38.109Z,10.70
2022-08-18T05:53:38.092Z,11.90
2022-08-18T05:54:38.085Z,10.40
2022-08-18T05:55:38.097Z,11.10
2022-08-18T05:56:38.079Z,11.60
2022-08-18T05:57:38.065Z,10.60
2022-08-18T05:58:38.063Z,10.90
2022-08-18T05:59:38.052Z,12.80
2022-08-18T06:00:38.066Z,11.50
2022-08-18T06:01:38.103Z,9.50
2022-08-18T06:02:38.078Z,11.30
2022-08-18T06:03:45.046Z,9.70
2022-08-18T06:04:39.010Z,10.80
2022-08-18T06:05:38.005Z,13.80
2022-08-18T06:06:38.011Z,11.90
2022-08-18T06:07:37.990Z,13.40
2022-08-18T06:08:37.981Z,13.90
2022-08-18T06:09:37.974Z,15.30
2022-08-18T06:10:37.990Z,12.10
2022-08-18T06:11:37.949Z,11.30
2022-08-18T06:12:40.198Z,11.50
2022-08-18T06:13:37.942Z,11.00
2022-08-18T06:14:37.955Z,10.40
2022-08-18T06:15:39.514Z,12.00
2022-08-18T06:16:37.912Z,12.40
2022-08-18T06:17:37.924Z,11.90
2022-08-18T06:18:37.894Z,10.60
2022-08-18T06:19:37.896Z,11.30
2022-08-18T06:20:37.910Z,13.20
2022-08-18T06:21:39.330Z,12.70
2022-08-18T06:22:37.871Z,13.10
2022-08-18T06:23:38.873Z,14.10
2022-08-18T06:24:37.854Z,12.80
2022-08-18T06:25:37.846Z,11.40
2022-08-18T06:26:37.876Z,13.70
2022-08-18T06:27:37.835Z,16.30
2022-08-18T06:28:37.829Z,11.40
2022-08-18T06:29:37.824Z,12.40
2022-08-18T06:30:37.819Z,12.30
2022-08-18T06:31:37.817Z,11.00
2022-08-18T06:32:37.823Z,12.90
2022-08-18T06:33:37.785Z,12.30
2022-08-18T06:34:37.798Z,13.40
2022-08-18T06:35:37.774Z,11.10
2022-08-18T06:36:37.788Z,13.40
2022-08-18T06:37:37.762Z,12.10
2022-08-18T06:38:37.779Z,13.90
2022-08-18T06:39:37.780Z,11.60
2022-08-18T06:40:37.749Z,11.70
2022-08-18T06:41:43.118Z,14.70
2022-08-18T06:42:40.523Z,14.40
2022-08-18T06:43:37.714Z,14.50
2022-08-18T06:44:37.726Z,13.30
2022-08-18T06:45:39.768Z,17.30
2022-08-18T06:46:37.692Z,16.90
2022-08-18T06:47:37.692Z,10.40
2022-08-18T06:48:37.685Z,16.30
2022-08-18T06:49:37.685Z,15.10
2022-08-18T06:50:37.684Z,16.10
2022-08-18T06:51:40.818Z,13.80
2022-08-18T06:52:37.640Z,13.80
2022-08-18T06:53:37.644Z,16.80
2022-08-18T06:54:37.635Z,16.90
2022-08-18T06:55:37.624Z,13.10
2022-08-18T06:56:37.643Z,14.30
2022-08-18T06:57:38.251Z,17.40
2022-08-18T06:58:37.618Z,14.10
2022-08-18T06:59:37.605Z,17.80
2022-08-18T07:00:37.689Z,16.60
2022-08-18T07:01:37.666Z,16.70
2022-08-18T07:02:37.580Z,18.30
2022-08-18T07:03:37.572Z,13.00
2022-08-18T07:04:37.593Z,14.30
2022-08-18T07:05:37.565Z,15.80
2022-08-18T07:06:37.566Z,14.10
2022-08-18T07:07:40.056Z,16.90
2022-08-18T07:08:38.545Z,14.30
2022-08-18T07:09:37.563Z,14.90
2022-08-18T07:10:37.523Z,10.70
2022-08-18T07:11:37.519Z,12.40
2022-08-18T07:12:37.518Z,12.60
2022-08-18T07:13:37.524Z,13.60
2022-08-18T07:14:37.491Z,12.30
2022-08-18T07:15:37.487Z,15.50
2022-08-18T07:17:00.423Z,13.50
2022-08-18T07:17:42.350Z,11.90
2022-08-18T07:18:38.485Z,11.70
2022-08-18T07:19:37.457Z,11.90
2022-08-18T07:20:37.449Z,12.70
2022-08-18T07:21:37.445Z,15.20
2022-08-18T07:22:39.227Z,11.90
2022-08-18T07:23:37.417Z,11.50
2022-08-18T07:24:37.439Z,13.50
2022-08-18T07:25:37.407Z,14.10
2022-08-18T07:26:37.388Z,13.00
2022-08-18T07:27:37.402Z,10.70
2022-08-18T07:28:37.388Z,12.20
2022-08-18T07:29:37.388Z,12.40
2022-08-18T07:30:37.389Z,13.60
2022-08-18T07:31:37.391Z,12.10
2022-08-18T07:32:37.361Z,12.70
2022-08-18T07:33:37.368Z,13.90
2022-08-18T07:34:37.344Z,13.30
2022-08-18T07:35:37.327Z,14.20
2022-08-18T07:36:37.322Z,14.50
2022-08-18T07:37:37.337Z,12.10
2022-08-18T07:38:43.233Z,13.50
2022-08-18T07:39:38.350Z,15.70
2022-08-18T07:40:38.293Z,13.30
2022-08-18T07:41:37.296Z,16.00
2022-08-18T07:42:54.353Z,15.60
2022-08-18T07:43:38.276Z,17.10
2022-08-18T07:44:37.256Z,16.50
2022-08-18T07:45:37.272Z,15.00
2022-08-18T07:46:37.253Z,16.30
2022-08-18T07:47:37.241Z,19.40
2022-08-18T07:48:39.637Z,18.50
2022-08-18T07:49:37.226Z,16.80
2022-08-18T07:50:58.902Z,17.60
2022-08-18T07:51:38.245Z,19.60
2022-08-18T07:52:44.178Z,22.40
2022-08-18T07:53:38.194Z,22.40
2022-08-18T07:54:51.143Z,22.10
2022-08-18T07:55:38.188Z,21.30
2022-08-18T07:56:37.177Z,20.90
2022-08-18T07:57:42.329Z,21.30
2022-08-18T07:58:38.156Z,22.10
2022-08-18T07:59:37.182Z,20.20
2022-08-18T08:01:03.073Z,23.50
2022-08-18T08:01:38.195Z,21.50
2022-08-18T08:02:37.131Z,21.60
2022-08-18T08:03:37.127Z,24.10
2022-08-18T08:04:37.131Z,24.00
2022-08-18T08:05:37.133Z,24.50
2022-08-18T08:06:37.122Z,13.40
2022-08-18T08:07:37.089Z,13.90
2022-08-18T08:08:37.076Z,14.50
2022-08-18T08:09:37.081Z,19.80
2022-08-18T08:10:37.074Z,13.70
2022-08-18T08:11:37.064Z,11.10
2022-08-18T08:12:37.105Z,10.90
2022-08-18T08:13:53.590Z,14.60
2022-08-18T08:14:38.042Z,14.00
2022-08-18T08:15:37.040Z,14.40
2022-08-18T08:16:37.039Z,15.40
2022-08-18T08:17:37.020Z,18.60
2022-08-18T08:18:37.003Z,16.60
2022-08-18T08:19:59.509Z,17.00
2022-08-18T08:20:38.016Z,20.80
2022-08-18T08:21:36.991Z,19.50
2022-08-18T08:22:36.982Z,20.90
2022-08-18T08:23:36.998Z,22.10
2022-08-18T08:24:36.961Z,20.00
2022-08-18T08:25:46.947Z,24.80
2022-08-18T08:26:37.939Z,23.40
2022-08-18T08:27:36.936Z,21.40
2022-08-18T08:28:36.926Z,20.80
2022-08-18T08:29:36.941Z,22.10
2022-08-18T08:30:36.906Z,18.60
2022-08-18T08:31:38.284Z,17.60
2022-08-18T08:32:36.904Z,19.30
2022-08-18T08:33:36.904Z,18.10
2022-08-18T08:34:36.900Z,20.50
2022-08-18T08:35:50.037Z,20.80
2022-08-18T08:36:37.876Z,21.20
2022-08-18T08:37:36.871Z,17.40
2022-08-18T08:38:42.752Z,16.10
2022-08-18T08:39:37.913Z,18.80
2022-08-18T08:40:36.838Z,17.20
2022-08-18T08:41:37.853Z,17.30
2022-08-18T08:42:40.252Z,13.70
2022-08-18T08:43:36.828Z,12.50
2022-08-18T08:44:48.958Z,16.00
2022-08-18T08:45:37.826Z,18.70
2022-08-18T08:46:36.787Z,19.60
2022-08-18T08:47:36.783Z,18.80
2022-08-18T08:48:36.774Z,17.60
2022-08-18T08:49:36.773Z,17.60
2022-08-18T08:50:36.767Z,17.10
2022-08-18T08:51:36.776Z,22.00
2022-08-18T08:52:36.769Z,17.40
2022-08-18T08:53:36.755Z,18.80
2022-08-18T08:54:36.731Z,17.30
2022-08-18T08:55:36.731Z,18.10
2022-08-18T08:56:36.749Z,19.50
2022-08-18T08:57:36.729Z,16.30
2022-08-18T08:58:36.711Z,20.90
2022-08-18T08:59:36.710Z,18.10
2022-08-18T09:00:36.688Z,17.30
2022-08-18T09:01:36.802Z,17.50
2022-08-18T09:02:49.868Z,18.70
2022-08-18T09:03:37.668Z,18.70
2022-08-18T09:04:36.683Z,18.50
2022-08-18T09:05:36.659Z,18.70
2022-08-18T09:06:36.648Z,21.60
2022-08-18T09:07:38.409Z,21.00
2022-08-18T09:08:36.651Z,22.70
2022-08-18T09:09:36.624Z,25.70
2022-08-18T09:10:36.613Z,25.00
2022-08-18T09:11:36.621Z,27.70
2022-08-18T09:12:36.623Z,25.70
2022-08-18T09:13:36.613Z,25.30
2022-08-18T09:14:36.586Z,25.80
2022-08-18T09:15:36.588Z,27.50
2022-08-18T09:16:36.590Z,29.30
2022-08-18T09:17:36.564Z,29.80
2022-08-18T09:18:36.578Z,29.50
2022-08-18T09:19:36.554Z,32.40
2022-08-18T09:20:36.544Z,32.20
2022-08-18T09:21:36.568Z,27.40
2022-08-18T09:22:36.535Z,37.30
2022-08-18T09:23:36.524Z,37.80
2022-08-18T09:24:36.515Z,40.10
2022-08-18T09:25:36.505Z,39.40
2022-08-18T09:26:39.224Z,44.30
2022-08-18T09:27:53.834Z,48.90
2022-08-18T09:28:37.495Z,43.80
2022-08-18T09:29:36.480Z,43.60
2022-08-18T09:30:37.493Z,33.30
2022-08-18T09:31:36.465Z,29.20
2022-08-18T09:32:36.455Z,27.70
2022-08-18T09:33:36.483Z,25.90
2022-08-18T09:34:36.442Z,25.10
2022-08-18T09:35:36.446Z,24.10
2022-08-18T09:36:36.432Z,26.80
2022-08-18T09:37:36.431Z,26.30
2022-08-18T09:38:36.412Z,27.50
2022-08-18T09:39:36.435Z,27.70
2022-08-18T09:40:59.323Z,32.30
2022-08-18T09:41:37.394Z,27.80
2022-08-18T09:42:49.913Z,31.30
2022-08-18T09:43:37.380Z,35.00
2022-08-18T09:44:36.367Z,36.20
2022-08-18T09:45:37.396Z,34.90
2022-08-18T09:46:36.344Z,30.00
2022-08-18T09:47:36.349Z,31.00
2022-08-18T09:48:36.328Z,36.90
2022-08-18T09:49:38.108Z,28.60
2022-08-18T09:50:36.311Z,31.30
2022-08-18T09:51:36.322Z,35.60
2022-08-18T09:52:37.333Z,29.60
2022-08-18T09:53:36.300Z,36.20
2022-08-18T09:54:36.307Z,31.00
2022-08-18T09:55:36.276Z,31.90
2022-08-18T09:56:36.282Z,31.90
2022-08-18T09:57:42.129Z,32.00
2022-08-18T09:58:37.250Z,32.10
2022-08-18T09:59:36.257Z,33.20
2022-08-18T10:00:36.234Z,27.70
2022-08-18T10:01:36.356Z,30.40
2022-08-18T10:02:36.995Z,31.50
2022-08-18T10:03:37.224Z,31.00
2022-08-18T10:04:36.199Z,32.50
2022-08-18T10:05:36.193Z,36.50
2022-08-18T10:06:36.192Z,34.00
2022-08-18T10:07:43.313Z,37.40
2022-08-18T10:08:37.204Z,30.70
2022-08-18T10:09:37.413Z,22.60
2022-08-18T10:11:01.117Z,28.30
2022-08-18T10:11:36.154Z,37.30
2022-08-18T10:12:36.146Z,35.90
2022-08-18T10:13:37.548Z,40.10
2022-08-18T10:14:36.160Z,35.90
2022-08-18T10:15:36.128Z,32.70
2022-08-18T10:16:57.509Z,39.00
2022-08-18T10:17:37.181Z,40.00
2022-08-18T10:18:37.585Z,47.80
2022-08-18T10:19:39.566Z,36.40
2022-08-18T10:20:36.085Z,43.80
2022-08-18T10:21:36.083Z,41.90
2022-08-18T10:22:36.098Z,39.30
2022-08-18T10:23:38.470Z,47.10
2022-08-18T10:24:37.427Z,36.10
2022-08-18T10:25:36.082Z,36.10
2022-08-18T10:26:36.050Z,43.50
2022-08-18T10:27:36.722Z,43.40
2022-08-18T10:28:36.033Z,46.60
2022-08-18T10:29:36.026Z,42.20
2022-08-18T10:30:36.425Z,45.60
2022-08-18T10:31:37.013Z,48.30
2022-08-18T10:32:36.032Z,32.10
2022-08-18T10:33:35.994Z,25.70
2022-08-18T10:34:35.987Z,38.50
2022-08-18T10:35:35.979Z,42.00
2022-08-18T10:36:35.973Z,33.60
2022-08-18T10:37:35.967Z,43.70
2022-08-18T10:38:35.985Z,42.00
2022-08-18T10:39:39.635Z,38.00
2022-08-18T10:40:36.940Z,30.60
2022-08-18T10:41:35.933Z,41.50
2022-08-18T10:42:35.927Z,48.60
2022-08-18T10:43:55.519Z,47.70
2022-08-18T10:44:36.938Z,51.40
2022-08-18T10:45:35.909Z,51.90
2022-08-18T10:46:39.574Z,46.40
2022-08-18T10:47:36.896Z,52.70
2022-08-18T10:48:35.880Z,45.70
2022-08-18T10:49:35.872Z,46.10
2022-08-18T10:50:35.914Z,49.30
2022-08-18T10:51:57.898Z,48.10
2022-08-18T10:52:41.672Z,42.00
2022-08-18T10:54:51.073Z,45.30
2022-08-18T10:55:48.025Z,39.20
2022-08-18T10:56:36.829Z,54.80
2022-08-18T10:57:35.836Z,47.80
2022-08-18T10:58:35.815Z,55.90
2022-08-18T10:59:43.971Z,53.90
2022-08-18T11:00:35.791Z,48.90
2022-08-18T11:01:35.797Z,51.90
2022-08-18T11:03:51.061Z,64.40
2022-08-18T11:05:36.754Z,55.80
2022-08-18T11:06:35.746Z,62.00
2022-08-18T11:07:35.747Z,49.40
2022-08-18T11:08:36.933Z,54.70
2022-08-18T11:09:35.780Z,48.40
2022-08-18T11:11:42.004Z,64.20
2022-08-18T11:12:36.697Z,59.60
2022-08-18T11:13:35.696Z,34.80
2022-08-18T11:14:35.687Z,46.00
2022-08-18T11:15:38.690Z,59.60
2022-08-18T11:16:35.674Z,39.60
2022-08-18T11:17:35.662Z,58.70
2022-08-18T11:18:42.573Z,51.50
2022-08-18T11:19:36.646Z,59.80
2022-08-18T11:20:36.660Z,46.30
2022-08-18T11:21:41.825Z,59.00
2022-08-18T11:22:36.629Z,66.60
2022-08-18T11:23:35.616Z,60.20
2022-08-18T11:24:35.603Z,59.30
2022-08-18T11:25:35.618Z,46.70
2022-08-18T11:26:35.636Z,66.80
2022-08-18T11:27:36.186Z,56.10
2022-08-18T11:28:38.975Z,61.30
2022-08-18T11:29:35.573Z,58.00
2022-08-18T11:30:35.782Z,58.10
2022-08-18T11:31:35.556Z,51.20
2022-08-18T11:32:35.566Z,41.80
2022-08-18T11:33:37.544Z,64.90
2022-08-18T11:34:35.560Z,74.20
2022-08-18T11:35:35.540Z,71.40
2022-08-18T11:36:35.526Z,68.10
2022-08-18T11:37:52.303Z,52.50
2022-08-18T11:38:36.555Z,53.20
2022-08-18T11:41:09.844Z,66.30
2022-08-18T11:41:48.489Z,58.50
2022-08-18T11:42:36.487Z,62.70
2022-08-18T11:43:40.981Z,64.80
2022-08-18T11:44:35.495Z,55.20
2022-08-18T11:45:35.488Z,61.10
2022-08-18T11:46:35.454Z,64.00
2022-08-18T11:47:35.445Z,65.30
2022-08-18T11:48:37.766Z,74.90
2022-08-18T11:49:36.464Z,71.00
2022-08-18T11:50:35.423Z,73.80
2022-08-18T11:51:35.421Z,75.10
2022-08-18T11:52:35.408Z,72.10
2022-08-18T11:53:35.412Z,66.60
2022-08-18T11:54:35.431Z,75.40
2022-08-18T11:55:35.397Z,65.70
2022-08-18T11:56:37.611Z,61.60
2022-08-18T11:57:35.383Z,65.80
2022-08-18T11:58:36.368Z,57.80
2022-08-18T12:00:36.346Z,49.10
2022-08-18T12:02:36.340Z,68.20
2022-08-18T12:03:35.335Z,67.80
2022-08-18T12:04:35.349Z,58.60
2022-08-18T12:05:35.322Z,46.90
2022-08-18T12:06:36.309Z,61.80
2022-08-18T12:07:35.354Z,72.30
2022-08-18T12:08:58.058Z,65.80
2022-08-18T12:10:16.312Z,62.50
2022-08-18T12:10:36.306Z,56.10
2022-08-18T12:11:35.276Z,58.20
2022-08-18T12:12:36.001Z,55.20
2022-08-18T12:13:35.259Z,42.10
2022-08-18T12:14:36.595Z,36.80
2022-08-18T12:15:44.131Z,38.30
2022-08-18T12:16:36.297Z,56.10
2022-08-18T12:17:35.234Z,42.10
2022-08-18T12:18:35.231Z,39.80
2022-08-18T12:19:35.241Z,47.60
2022-08-18T12:20:35.241Z,40.30
2022-08-18T12:21:35.236Z,35.90
2022-08-18T12:22:35.198Z,56.70
2022-08-18T12:24:39.106Z,47.50
2022-08-18T12:25:35.182Z,42.30
2022-08-18T12:26:38.982Z,42.20
2022-08-18T12:27:36.178Z,52.70
2022-08-18T12:28:35.169Z,56.60
2022-08-18T12:29:43.409Z,61.20
2022-08-18T12:30:36.178Z,64.50
2022-08-18T12:31:42.395Z,64.60
2022-08-18T12:32:50.181Z,57.80
2022-08-18T12:33:48.434Z,63.90
2022-08-18T12:34:35.122Z,63.40
2022-08-18T12:35:35.228Z,63.40
2022-08-18T12:36:35.139Z,63.80
2022-08-18T12:37:58.429Z,62.90
2022-08-18T12:38:36.470Z,59.60
2022-08-18T12:39:35.116Z,65.80
2022-08-18T12:40:35.096Z,65.10
2022-08-18T12:41:35.091Z,71.60
2022-08-18T12:42:35.065Z,71.50
2022-08-18T12:43:35.055Z,72.70
2022-08-18T12:44:35.059Z,75.20
2022-08-18T12:45:37.539Z,68.30
2022-08-18T12:46:35.072Z,64.90
2022-08-18T12:47:35.028Z,67.50
2022-08-18T12:48:35.019Z,67.80
2022-08-18T12:49:35.022Z,72.40
2022-08-18T12:50:42.682Z,70.60
2022-08-18T12:51:35.023Z,65.40
2022-08-18T12:52:35.041Z,71.70
2022-08-18T12:53:57.913Z,69.40
2022-08-18T12:54:35.978Z,67.60
2022-08-18T12:55:35.982Z,71.40
2022-08-18T12:56:35.143Z,69.20
2022-08-18T12:57:53.146Z,75.00
2022-08-18T12:59:37.535Z,76.60
2022-08-18T13:00:34.930Z,63.50
2022-08-18T13:01:35.003Z,60.70
2022-08-18T13:02:34.913Z,43.20
2022-08-18T13:03:35.277Z,77.50
2022-08-18T13:04:34.959Z,71.00
2022-08-18T13:05:34.889Z,51.80
2022-08-18T13:06:34.885Z,70.00
2022-08-18T13:07:34.879Z,72.30